Hannaford, North Dakota
Current Conditions -  °F | °C
As of 12:35 AM on Wednesday 28 Jan 2015 (Local Time) from KBAC Reporting Station
Moderate Fog Moderate Fog  
Wind Chill: 24°   Ceiling: 200
Heat Index: 32°   Visibility: 0.5mi
Dew Point: 32°   Wind: 9mph
Humidity: 100%   Direction: 170°S
Pressure: 29.84"   Gusts: NA
Location:  47.31°N, 98.19°W
Report Text: KBAC 280635Z AUTO 17008KT 1/2SM FZFG OVC002 00/00 A2984 RMK AO2
Loading
Personal Weather Stations






























Interactive Weather Map New forecast layout! Learn more

10-Day Weather Forecast

Advertisements
Track Severe Weather on mobile